Flight Track Log - Related Links

Times and Time Zones

All times are in EDT time to prevent confusion due to time zone crossing. See the LYM515 flight status page for this flight to view local times or setup timezone preferences in your user account.

Time Position Orientation Groundspeed Altitude Reporting Facility
EDT Latitude Longitude Course Direction KTS MPH feet Rate Location/Type
Sat 09:48:15 AM 38.0242 -102.5578 96° East 196 226 8,000  Level Denver Center
Sat 09:49:15 AM 38.0125 -102.4917 103° East 188 216 9,300 1,091 Climbing Denver Center
Sat 09:50:16 AM 38.0078 -102.4289 95° East 198 228 10,200 787 Climbing Denver Center
Sat 09:51:17 AM 37.9992 -102.3461 97° East 209 241 10,900 787 Climbing Denver Center
Sat 09:52:00 AM 38.0316 -102.2792 96° East  Level FlightAware Approximate
Sat 09:52:18 AM 37.9919 -102.2739 97° East 216 249 11,800  Level Denver Center
Sat 09:53:00 AM 38.0249 -102.1982 96° East  Level FlightAware Approximate
Sat 09:53:19 AM 37.9861 -102.1997 96° East 219 252 12,500  Level Denver Center
Sat 09:54:20 AM 37.9706 -102.1092 102° East 233 268 12,900 246 Climbing Denver Center
Sat 09:55:21 AM 37.9567 -102.0264 102° East 248 285 13,000 49 Climbing Denver Center
Sat 09:56:22 AM 37.9461 -101.9244 97° East 260 299 13,000 -49 Level Denver Center
Sat 09:57:23 AM 37.9397 -101.8361 95° East 262 302 12,900 -49 Descending Denver Center
Sat 09:58:24 AM 37.9211 -101.7489 105° East 266 306 12,900  Level Denver Center
Sat 09:59:25 AM 37.9131 -101.6467 96° East 260 299 12,900  Level Denver Center
Sat 10:00:26 AM 37.9081 -101.5575 94° East 263 303 12,900  Level Denver Center
Sat 10:01:27 AM 37.8981 -101.4686 98° East 266 306 12,900 49 Level Denver Center
Sat 10:02:28 AM 37.8850 -101.3672 99° East 264 304 13,000 49 Climbing Denver Center
Sat 10:03:29 AM 37.8744 -101.2803 99° East 262 302 13,000 -49 Level Denver Center
Sat 10:04:30 AM 37.8686 -101.1917 95° East 262 302 12,900 -49 Descending Denver Center
Sat 10:05:31 AM 37.8503 -101.0875 103° East 274 315 12,900  Level Denver Center
Sat 10:06:33 AM 37.8458 -101.0000 94° East 266 306 12,900 -439 Level Denver Center
Sat 10:07:34 AM 37.8444 -100.9103 91° East 263 303 12,000 -1,377 Descending Denver Center
Sat 10:08:35 AM 37.8381 -100.7906 94° East 293 337 10,100 -1,869 Descending Denver Center

Login

Don't have an account? Register now (free) for customized features, flight alerts, and more!